Aktuální počasí v Česku a ve světě - METAR

Seznam meteostanic umístěných nejčasteji na letišti v ČR a ve světě

Vyhledat místa podle abecedy:
A B C D E F G H I J K L M N O P Q R S T U V W X Y Z

Filtrovat:

ID stanice:
a/nebo
Název místa (fulltext):
 
Místo (ID)Naposledy načteno 
Ústí nad Labem - Kočkov (Usti n/L) 12.08.2020 15:00 UTC Zobrazit data
Místo: Ústí nad Labem - Kočkov
Teplota: 30 °C (pocitová: 32.7 °C)
Vítr: 3 m/s z(e) 180°
Počasí: skorojasno
Dohlednost: 60 km
Zákl. oblačnosti: 2/8 1800 m
Vlhkost: 35%
Ústí nad Orlicí (Usti n/O) 12.08.2020 15:00 UTC Zobrazit data
Místo: Ústí nad Orlicí
Teplota: 28 °C (pocitová: 30.1 °C)
Vítr: 1 m/s z(e) 0°
Počasí: skorojasno
Dohlednost: 35 km
Zákl. oblačnosti: 2/8 1800 m
Vlhkost: 48%
Ulaanbaatar (ZMUB) 20.02.2019 12:00 UTC Zobrazit METAR
ZMUB 201200Z CAVOK M14/M25 Q1021 NOSIG RMK QFE657.8 33
Uvea Island (NLWW) 12.08.2020 15:00 UTC Zobrazit METAR
NLWW 121500Z AUTO 12006KT 9999 SCT020/// BKN025/// BKN031/// 27/23 Q1010 TEMPO SHRA FEW020TCU
Uzhhorod (UKLU) Zatím nenačteno  
Reklama

Počasí na Váš email

Emaily jsou bez reklamy a bez spamu



Odhlásit newsletter




Další české internetové stránky (nejen) o počasí najdete v katalogu TOPlist - weby o počasí nebo vyhledejte na internetu, co jste tu na 🌞 Slunečnu ⛅ zatím nenašli:
⭐ Přidat Slunečno.cz do oblíbených | 🏠 Nastavit Slunečno.cz jako HOMEPAGE

⬆️ Posunout stránku nahoru ⬆️
Reklama